Time;durP1;ratioP1;P1;durP2;ratioP2;P2;SDS_P1;SDS_P2;PMS_P1;PMS_P2;Temp;Humidity;BMP_temperature;BMP_pressure;BME280_temperature;BME280_humidity;BME280_pressure;Samples;Min_cycle;Max_cycle;Signal;HPM_P1;HPM_P2
2023/06/23 00:02:25;;;;;;;7.50;6.10;;;;;;;16.57;74.98;100437.02;104145;277;105356;-58
2023/06/23 00:04:59;;;;;;;6.90;5.80;;;;;;;16.57;75.00;100445.70;104120;277;113749;-58
2023/06/23 00:07:31;;;;;;;;;;;;;;;16.53;75.00;100448.61;104128;277;97749;-56
2023/06/23 00:10:07;;;;;;;7.30;5.60;;;;;;;16.50;75.24;100442.71;104120;277;96864;-56
2023/06/23 00:12:43;;;;;;;8.90;6.20;;;;;;;16.47;75.31;100451.52;104088;277;120285;-56
2023/06/23 00:15:18;;;;;;;6.30;5.30;;;;;;;16.45;75.42;100456.91;104133;278;106086;-56
2023/06/23 00:17:52;;;;;;;6.90;5.80;;;;;;;16.45;75.59;100454.11;104582;277;114837;-56
2023/06/23 00:20:26;;;;;;;8.20;5.50;;;;;;;16.48;75.45;100452.52;104121;277;97339;-56
2023/06/23 00:23:01;;;;;;;7.60;5.70;;;;;;;16.49;75.52;100453.10;104620;277;96821;-56
2023/06/23 00:25:35;;;;;;;7.60;6.00;;;;;;;16.54;75.43;100450.34;104132;277;119571;-55
2023/06/23 00:28:09;;;;;;;7.50;5.70;;;;;;;16.55;75.32;100447.81;104637;277;105699;-60
2023/06/23 00:30:44;;;;;;;10.20;6.60;;;;;;;16.58;75.35;100451.39;104606;277;114792;-60
2023/06/23 00:33:18;;;;;;;7.80;5.80;;;;;;;16.56;75.37;100447.73;104124;277;94673;-60
2023/06/23 00:35:52;;;;;;;7.90;5.80;;;;;;;16.54;75.41;100448.03;104136;266;97781;-55
2023/06/23 00:38:26;;;;;;;8.50;5.40;;;;;;;16.52;75.46;100445.67;104111;277;120150;-55
2023/06/23 00:41:00;;;;;;;8.40;5.90;;;;;;;16.53;75.66;100442.13;104630;277;103514;-60
2023/06/23 00:43:34;;;;;;;8.00;5.70;;;;;;;16.60;75.57;100438.36;104597;277;113843;-60
2023/06/23 00:46:17;;;;;;;8.10;5.70;;;;;;;16.65;75.51;100437.63;104100;277;96713;-58
2023/06/23 00:48:51;;;;;;;7.60;5.60;;;;;;;16.70;75.50;100434.79;104579;277;98113;-58
2023/06/23 00:51:24;;;;;;;;;;;;;;;16.76;75.36;100434.90;104605;277;118781;-58
2023/06/23 00:53:58;;;;;;;7.20;6.10;;;;;;;16.83;75.30;100436.14;104517;279;106032;-58
2023/06/23 00:56:32;;;;;;;;;;;;;;;16.88;75.10;100428.95;104477;279;115461;-55
2023/06/23 00:59:06;;;;;;;7.40;6.00;;;;;;;16.94;74.97;100432.48;104479;279;94177;-56
2023/06/23 01:01:40;;;;;;;7.00;5.80;;;;;;;16.93;74.97;100424.77;104072;283;97251;-55
2023/06/23 01:04:14;;;;;;;9.40;6.20;;;;;;;16.92;75.02;100422.77;104060;279;119312;-55
2023/06/23 01:07:02;;;;;;;7.70;5.90;;;;;;;16.93;74.92;100421.41;104065;279;105642;-56
2023/06/23 01:09:49;;;;;;;8.80;6.30;;;;;;;16.91;75.00;100419.41;104474;279;115443;-56
2023/06/23 01:12:35;;;;;;;7.20;5.90;;;;;;;16.88;74.85;100415.38;104462;279;94546;-58
2023/06/23 01:15:16;;;;;;;7.90;6.30;;;;;;;16.86;74.89;100409.66;104509;279;96207;-58
2023/06/23 01:17:56;;;;;;;6.70;5.70;;;;;;;16.80;75.08;100405.67;104518;279;118163;-56
2023/06/23 01:20:33;;;;;;;7.40;6.30;;;;;;;16.77;75.22;100397.83;104478;279;105017;-56
2023/06/23 01:23:45;;;;;;;6.50;5.50;;;;;;;16.77;75.27;100397.98;104089;279;114251;-58
2023/06/23 01:26:48;;;;;;;8.80;5.80;;;;;;;16.82;75.23;100398.20;104091;279;95572;-60
2023/06/23 01:29:25;;;;;;;9.20;6.40;;;;;;;16.92;75.04;100398.75;104113;279;96513;-60
2023/06/23 01:32:06;;;;;;;6.90;5.90;;;;;;;16.99;74.96;100396.39;104099;279;119826;-56
2023/06/23 01:34:46;;;;;;;9.70;6.50;;;;;;;17.08;74.71;100391.77;104094;279;104802;-56
2023/06/23 01:37:26;;;;;;;7.10;6.30;;;;;;;17.16;74.49;100393.66;104096;279;113540;-61
2023/06/23 01:40:08;;;;;;;6.80;6.00;;;;;;;17.22;74.30;100394.38;104074;279;95969;-61
2023/06/23 01:42:47;;;;;;;7.60;6.20;;;;;;;17.26;74.06;100395.30;104485;279;96738;-61
2023/06/23 01:45:25;;;;;;;8.60;6.20;;;;;;;17.30;74.05;100393.55;104470;279;120126;-59
2023/06/23 01:48:03;;;;;;;7.50;6.00;;;;;;;17.37;73.84;100395.21;104055;279;105371;-56
2023/06/23 01:50:42;;;;;;;8.20;5.90;;;;;;;17.45;73.57;100397.48;104065;279;113600;-56
2023/06/23 01:53:19;;;;;;;8.50;5.90;;;;;;;17.53;73.39;100408.66;104066;279;92394;-56
2023/06/23 01:55:55;;;;;;;7.20;5.90;;;;;;;17.56;73.12;100409.02;104121;279;95759;-59
2023/06/23 01:58:31;;;;;;;6.80;5.80;;;;;;;17.57;72.97;100410.68;104465;283;118523;-60
2023/06/23 02:01:07;;;;;;;7.10;5.90;;;;;;;17.58;72.93;100405.17;104087;279;104534;-57
2023/06/23 02:03:42;;;;;;;9.80;5.50;;;;;;;17.62;72.90;100403.11;104504;279;115070;-58
2023/06/23 02:06:17;;;;;;;7.50;5.00;;;;;;;17.68;72.72;100407.30;104074;279;96348;-56
2023/06/23 02:08:52;;;;;;;6.90;5.50;;;;;;;17.74;72.52;100398.30;104117;279;97719;-56
2023/06/23 02:11:27;;;;;;;7.40;5.60;;;;;;;17.76;72.31;100396.58;104072;279;118415;-56
2023/06/23 02:14:02;;;;;;;7.40;5.30;;;;;;;17.77;72.22;100398.57;103866;279;106109;-55
2023/06/23 02:16:39;;;;;;;6.60;5.20;;;;;;;17.78;72.27;100400.23;104073;279;114672;-56
2023/06/23 02:19:16;;;;;;;7.90;5.30;;;;;;;17.79;72.14;100405.61;104092;279;94356;-56
2023/06/23 02:21:52;;;;;;;7.30;5.70;;;;;;;17.80;72.01;100405.80;104078;279;97514;-58
2023/06/23 02:24:27;;;;;;;9.50;5.70;;;;;;;17.82;72.01;100406.77;104103;279;119912;-58
2023/06/23 02:27:01;;;;;;;6.90;4.90;;;;;;;17.85;72.01;100401.27;104068;279;105850;-60
2023/06/23 02:29:38;;;;;;;7.10;6.10;;;;;;;17.87;72.01;100399.07;104453;283;114607;-60
2023/06/23 02:32:16;;;;;;;8.30;5.80;;;;;;;17.92;71.89;100395.75;104084;279;94303;-56
2023/06/23 02:34:51;;;;;;;6.30;5.30;;;;;;;17.99;71.70;100388.31;104087;279;97429;-56
2023/06/23 02:37:27;;;;;;;7.40;5.60;;;;;;;18.05;71.64;100383.86;104066;279;119333;-58
2023/06/23 02:40:09;;;;;;;6.60;4.70;;;;;;;18.08;71.55;100389.31;104070;279;104166;-58
2023/06/23 02:42:51;;;;;;;8.20;5.20;;;;;;;18.15;71.45;100394.70;104056;279;113779;-59
2023/06/23 02:45:34;;;;;;;7.90;5.80;;;;;;;18.20;71.42;100392.79;104465;279;93911;-59
2023/06/23 02:48:15;;;;;;;8.20;5.80;;;;;;;18.27;71.05;100396.08;104080;279;96288;-59
2023/06/23 02:50:51;;;;;;;6.90;5.30;;;;;;;18.35;70.99;100393.52;104069;279;119797;-57
2023/06/23 02:53:29;;;;;;;6.30;5.30;;;;;;;18.42;70.76;100391.81;104493;279;105452;-58
2023/06/23 02:56:16;;;;;;;9.60;5.60;;;;;;;18.52;70.65;100394.02;104496;279;115157;-58
2023/06/23 02:58:56;;;;;;;7.50;5.50;;;;;;;18.62;70.48;100389.38;104121;279;94112;-58
2023/06/23 03:01:32;;;;;;;6.10;5.40;;;;;;;18.73;70.32;100382.27;104515;279;97856;-56
2023/06/23 03:04:06;;;;;;;6.00;5.40;;;;;;;18.83;70.02;100378.19;104503;279;119886;-56
2023/06/23 03:06:44;;;;;;;8.20;5.10;;;;;;;18.94;69.57;100370.41;104111;279;104823;-56
2023/06/23 03:09:18;;;;;;;8.10;5.10;;;;;;;19.03;69.37;100362.70;104042;279;113575;-57
2023/06/23 03:11:52;;;;;;;5.90;5.30;;;;;;;19.15;69.13;100355.53;104082;279;93828;-56
2023/06/23 03:14:26;;;;;;;5.90;5.00;;;;;;;19.25;68.85;100348.38;104510;279;96820;-56
2023/06/23 03:17:07;;;;;;;6.40;4.90;;;;;;;19.36;68.62;100346.60;104071;279;119892;-57
2023/06/23 03:19:44;;;;;;;7.00;4.80;;;;;;;19.50;68.43;100355.95;104100;279;105581;-57
2023/06/23 03:22:24;;;;;;;6.00;4.80;;;;;;;19.64;68.02;100349.83;104090;279;115594;-60
2023/06/23 03:25:03;;;;;;;6.50;4.80;;;;;;;19.78;67.79;100347.76;104068;279;93800;-60
2023/06/23 03:27:40;;;;;;;7.00;5.00;;;;;;;19.91;67.68;100353.77;104103;279;97364;-61
2023/06/23 03:30:36;;;;;;;5.90;4.50;;;;;;;20.06;67.28;100356.89;104482;279;120582;-61
2023/06/23 03:33:15;;;;;;;6.70;4.90;;;;;;;20.31;66.82;100356.26;104534;279;104130;-59
2023/06/23 03:35:51;;;;;;;8.30;5.50;;;;;;;20.62;66.41;100362.02;104081;279;114667;-57
2023/06/23 03:38:29;;;;;;;6.20;4.80;;;;;;;21.08;65.78;100366.56;104081;279;94193;-56
2023/06/23 03:41:09;;;;;;;6.80;4.70;;;;;;;21.66;65.25;100379.29;104515;279;97925;-57
2023/06/23 03:43:52;;;;;;;5.50;4.50;;;;;;;22.29;64.17;100397.27;104109;279;119771;-57
2023/06/23 03:46:32;;;;;;;7.10;4.20;;;;;;;22.84;63.21;100404.73;104082;279;103951;-57
2023/06/23 03:49:10;;;;;;;8.80;5.20;;;;;;;23.17;62.38;100411.45;104099;279;114560;-57
2023/06/23 03:51:47;;;;;;;4.90;4.40;;;;;;;23.34;61.41;100413.98;104084;279;94012;-57
2023/06/23 03:54:25;;;;;;;6.30;4.30;;;;;;;23.63;60.88;100410.79;104101;279;95427;-56
2023/06/23 03:57:00;;;;;;;7.10;4.70;;;;;;;23.76;60.07;100407.15;104099;279;119781;-59
2023/06/23 03:59:35;;;;;;;5.70;4.30;;;;;;;23.60;59.46;100392.15;104115;279;105383;-59
2023/06/23 04:02:11;;;;;;;5.90;4.40;;;;;;;23.32;59.26;100386.41;104482;279;114904;-59
2023/06/23 04:04:48;;;;;;;5.90;4.40;;;;;;;23.11;59.19;100381.00;104104;279;93520;-60
2023/06/23 04:07:23;;;;;;;7.10;4.20;;;;;;;22.80;59.17;100385.71;104499;279;96929;-55
2023/06/23 04:10:01;;;;;;;6.50;4.20;;;;;;;22.57;59.34;100378.92;104086;279;118821;-55
2023/06/23 04:12:36;;;;;;;5.30;4.70;;;;;;;22.36;59.40;100361.20;104119;279;106239;-56
2023/06/23 04:15:14;;;;;;;7.00;4.40;;;;;;;22.15;59.53;100345.27;104065;279;114965;-56
2023/06/23 04:17:50;;;;;;;5.90;4.60;;;;;;;21.97;59.65;100341.81;104079;279;93324;-55
2023/06/23 04:20:25;;;;;;;6.70;4.50;;;;;;;21.91;60.01;100336.10;104114;279;97384;-55
2023/06/23 04:23:00;;;;;;;5.50;4.50;;;;;;;21.99;60.02;100329.77;104104;279;119168;-55
2023/06/23 04:25:36;;;;;;;9.70;4.90;;;;;;;22.06;59.78;100316.11;104064;279;105627;-55
2023/06/23 04:28:12;;;;;;;7.10;4.60;;;;;;;22.05;59.69;100313.41;104083;279;114235;-55
2023/06/23 04:30:48;;;;;;;6.60;4.40;;;;;;;22.16;59.55;100313.54;104501;279;93149;-57
2023/06/23 04:33:22;;;;;;;5.80;4.40;;;;;;;22.29;59.16;100313.70;104105;279;96718;-58
2023/06/23 04:36:07;;;;;;;6.30;4.10;;;;;;;22.74;58.86;100305.57;104099;279;118132;-56
2023/06/23 04:38:46;;;;;;;5.40;3.90;;;;;;;23.43;57.84;100303.48;104096;279;105823;-56
2023/06/23 04:41:26;;;;;;;6.60;4.00;;;;;;;23.74;57.08;100309.44;104092;279;113731;-57
2023/06/23 04:44:06;;;;;;;5.60;4.20;;;;;;;24.08;56.87;100325.45;104069;279;93942;-56
2023/06/23 04:46:43;;;;;;;5.30;3.60;;;;;;;24.58;56.21;100327.88;104088;279;96879;-56
2023/06/23 04:49:22;;;;;;;5.10;3.70;;;;;;;25.14;55.07;100331.64;104090;279;119494;-56
2023/06/23 04:52:00;;;;;;;7.80;3.80;;;;;;;25.59;54.18;100340.82;104488;279;105450;-56
2023/06/23 04:54:41;;;;;;;4.60;3.70;;;;;;;25.80;53.04;100342.81;104075;279;113126;-56
2023/06/23 04:57:22;;;;;;;5.80;3.80;;;;;;;26.07;52.67;100350.41;104089;279;95569;-58
2023/06/23 05:00:01;;;;;;;6.10;3.80;;;;;;;26.21;51.98;100351.67;104073;279;96535;-58
2023/06/23 05:02:37;;;;;;;6.70;3.90;;;;;;;26.32;51.59;100352.93;104092;279;120373;-56
2023/06/23 05:05:14;;;;;;;6.30;3.90;;;;;;;26.30;50.98;100349.91;104098;279;104923;-56
2023/06/23 05:07:50;;;;;;;5.50;3.80;;;;;;;26.55;51.03;100332.60;104083;279;114034;-58
2023/06/23 05:10:28;;;;;;;4.70;3.50;;;;;;;26.69;50.24;100321.34;104061;279;94739;-58
2023/06/23 05:13:05;;;;;;;3.80;3.10;;;;;;;26.68;49.89;100317.58;104107;279;97132;-56
2023/06/23 05:15:40;;;;;;;6.20;3.40;;;;;;;26.78;49.72;100302.33;104479;279;120534;-56
2023/06/23 05:18:15;;;;;;;6.10;3.50;;;;;;;26.66;49.32;100293.27;104049;279;105914;-56
2023/06/23 05:20:52;;;;;;;4.70;3.60;;;;;;;26.34;49.19;100297.77;104069;279;114777;-56
2023/06/23 05:23:28;;;;;;;5.10;3.40;;;;;;;25.85;49.31;100304.89;104092;279;93563;-56
2023/06/23 05:26:03;;;;;;;4.50;3.50;;;;;;;25.51;49.58;100312.40;104531;279;96812;-57
2023/06/23 05:28:41;;;;;;;4.70;3.50;;;;;;;25.31;49.81;100329.92;103888;279;118518;-57
2023/06/23 05:31:17;;;;;;;6.00;3.70;;;;;;;25.21;50.04;100340.94;104123;279;105704;-57
2023/06/23 05:33:54;;;;;;;6.40;4.60;;;;;;;25.29;50.37;100348.13;104069;279;114601;-57
2023/06/23 05:36:30;;;;;;;3.60;3.20;;;;;;;25.46;50.46;100343.58;104071;279;94397;-59
2023/06/23 05:39:05;;;;;;;4.90;3.80;;;;;;;25.82;50.05;100342.02;104084;279;96941;-59
2023/06/23 05:41:40;;;;;;;5.10;3.80;;;;;;;26.35;49.59;100340.48;104505;279;120018;-56
2023/06/23 05:44:14;;;;;;;4.20;3.80;;;;;;;26.82;48.98;100337.20;104100;279;105256;-56
2023/06/23 05:46:50;;;;;;;5.50;3.90;;;;;;;27.31;48.22;100343.03;104097;279;113324;-59
2023/06/23 05:49:28;;;;;;;4.80;3.40;;;;;;;27.36;47.54;100339.56;104066;279;92768;-59
2023/06/23 05:52:06;;;;;;;4.70;4.00;;;;;;;27.45;47.14;100334.69;103849;281;98453;-56
2023/06/23 05:54:45;;;;;;;7.00;3.70;;;;;;;27.58;46.40;100337.52;104088;279;118065;-59
2023/06/23 05:57:31;;;;;;;6.10;3.80;;;;;;;27.42;46.47;100333.23;104132;278;105676;-58
2023/06/23 06:00:14;;;;;;;5.30;4.00;;;;;;;27.41;46.21;100337.97;104051;279;113036;-56
2023/06/23 06:02:53;;;;;;;3.90;3.50;;;;;;;27.28;46.03;100335.48;104100;279;94649;-58
2023/06/23 06:05:29;;;;;;;6.40;3.40;;;;;;;27.32;46.14;100317.66;104077;279;96811;-58
2023/06/23 06:08:05;;;;;;;5.00;3.40;;;;;;;27.14;45.71;100301.41;104061;279;120155;-58
2023/06/23 06:10:44;;;;;;;4.30;3.30;;;;;;;27.07;46.20;100299.14;104060;279;105845;-58
2023/06/23 06:13:20;;;;;;;5.20;3.30;;;;;;;27.04;46.16;100298.08;104506;279;114090;-56
2023/06/23 06:15:56;;;;;;;4.80;3.50;;;;;;;26.84;46.03;100301.69;104099;279;93693;-58
2023/06/23 06:18:31;;;;;;;5.20;3.30;;;;;;;26.46;46.12;100305.95;104524;279;98324;-59
2023/06/23 06:21:07;;;;;;;3.90;3.10;;;;;;;26.20;46.38;100306.02;103800;279;122104;-57
2023/06/23 06:23:42;;;;;;;4.50;3.70;;;;;;;26.00;46.77;100292.06;104080;279;105700;-57
2023/06/23 06:26:19;;;;;;;4.40;3.70;;;;;;;25.90;47.01;100271.45;104483;279;114444;-57
2023/06/23 06:28:56;;;;;;;6.00;3.30;;;;;;;25.82;47.18;100258.10;103713;279;486596;-57
2023/06/23 06:31:33;;;;;;;4.80;3.50;;;;;;;25.64;47.14;100254.02;104475;279;97724;-54
2023/06/23 06:34:10;;;;;;;3.90;3.50;;;;;;;25.52;47.51;100255.24;104084;279;117759;-54
2023/06/23 06:36:46;;;;;;;6.20;3.50;;;;;;;25.33;47.76;100259.92;104094;279;106157;-54
2023/06/23 06:39:22;;;;;;;6.30;3.20;;;;;;;25.13;47.98;100263.19;104076;279;113779;-56
2023/06/23 06:42:00;;;;;;;5.80;3.50;;;;;;;25.11;48.22;100259.89;104078;279;94560;-56
2023/06/23 06:44:36;;;;;;;6.10;3.20;;;;;;;24.97;48.36;100255.02;104071;279;97035;-54
2023/06/23 06:47:13;;;;;;;5.10;3.50;;;;;;;24.90;48.69;100265.29;104093;279;120087;-56
2023/06/23 06:49:48;;;;;;;5.20;3.30;;;;;;;24.90;49.03;100275.91;104093;279;105979;-57
2023/06/23 06:52:25;;;;;;;5.00;3.50;;;;;;;24.78;49.33;100284.70;104111;279;114535;-58
2023/06/23 06:55:00;;;;;;;6.00;3.60;;;;;;;24.72;49.66;100288.58;104506;279;94203;-58
2023/06/23 06:57:36;;;;;;;4.30;3.70;;;;;;;24.59;49.96;100296.16;104093;279;96314;-57
2023/06/23 07:00:14;;;;;;;4.40;3.70;;;;;;;24.47;50.05;100308.77;104108;279;118341;-54
2023/06/23 07:02:49;;;;;;;4.20;3.70;;;;;;;24.33;50.48;100305.67;104480;279;105644;-58
2023/06/23 07:05:29;;;;;;;8.50;4.60;;;;;;;24.31;50.69;100293.70;104068;279;113809;-58
2023/06/23 07:08:05;;;;;;;4.90;3.90;;;;;;;24.32;50.98;100288.39;104108;279;93740;-58
2023/06/23 07:10:40;;;;;;;7.00;3.90;;;;;;;24.41;51.20;100289.06;104108;279;98466;-58
2023/06/23 07:13:14;;;;;;;5.00;4.00;;;;;;;24.44;51.14;100278.23;104515;279;118145;-57
2023/06/23 07:15:48;;;;;;;7.10;4.30;;;;;;;24.42;51.31;100264.98;104120;279;105749;-65
2023/06/23 07:18:24;;;;;;;8.30;4.00;;;;;;;24.37;51.47;100252.46;104076;279;114922;-63
2023/06/23 07:20:58;;;;;;;6.90;4.30;;;;;;;24.36;51.37;100244.30;104097;279;94643;-64
2023/06/23 07:23:30;;;;;;;;;;;;;;;24.40;51.50;100246.39;104080;279;96358;-64
2023/06/23 07:26:04;;;;;;;8.80;4.90;;;;;;;24.39;51.67;100242.41;104482;279;119731;-64
2023/06/23 07:28:38;;;;;;;6.90;4.10;;;;;;;24.40;51.70;100225.61;104517;279;104903;-64
2023/06/23 07:31:12;;;;;;;6.40;4.10;;;;;;;24.46;51.95;100213.98;104064;279;113283;-60
2023/06/23 07:33:47;;;;;;;7.30;4.20;;;;;;;24.50;51.89;100225.61;104041;279;93797;-61
2023/06/23 07:36:22;;;;;;;4.90;3.80;;;;;;;24.54;52.04;100230.23;104095;279;98313;-61
2023/06/23 07:38:56;;;;;;;5.30;4.40;;;;;;;24.59;52.20;100235.06;104041;279;119248;-58
2023/06/23 07:41:30;;;;;;;5.50;4.20;;;;;;;24.60;52.19;100249.42;104520;279;105149;-57
2023/06/23 07:44:02;;;;;;;;;;;;;;;24.61;52.19;100249.91;104099;279;113632;-58
2023/06/23 07:46:37;;;;;;;5.80;4.40;;;;;;;24.59;52.47;100247.16;104514;279;94534;-58
2023/06/23 07:49:11;;;;;;;9.50;4.80;;;;;;;24.56;52.50;100251.88;104114;279;97082;-54
2023/06/23 07:51:46;;;;;;;5.80;4.80;;;;;;;24.50;52.63;100253.84;104095;279;119087;-55
2023/06/23 07:54:20;;;;;;;7.50;4.80;;;;;;;24.45;52.70;100239.84;104068;279;104662;-55
2023/06/23 07:56:54;;;;;;;6.40;4.90;;;;;;;24.40;52.88;100240.30;104489;279;113664;-58
2023/06/23 07:59:27;;;;;;;;;;;;;;;24.28;53.13;100241.09;104069;279;94208;-57
2023/06/23 08:02:01;;;;;;;8.40;5.20;;;;;;;24.26;53.38;100231.70;104513;279;95106;-55
2023/06/23 08:04:35;;;;;;;;;;;;;;;24.19;53.52;100230.02;104116;279;117949;-55
2023/06/23 08:07:07;;;;;;;;;;;;;;;24.03;53.75;100229.72;104092;279;104499;-57
2023/06/23 08:09:41;;;;;;;8.00;5.00;;;;;;;23.98;53.93;100223.02;104048;279;113097;-57
2023/06/23 08:12:15;;;;;;;7.30;5.50;;;;;;;23.94;54.23;100210.72;104090;279;94494;-57
2023/06/23 08:14:50;;;;;;;6.90;5.40;;;;;;;23.88;54.60;100215.16;104092;279;95840;-58
2023/06/23 08:17:25;;;;;;;9.20;5.80;;;;;;;23.80;54.86;100212.65;104497;279;119880;-57
2023/06/23 08:19:57;;;;;;;;;;;;;;;23.73;55.22;100213.72;104123;279;104531;-56
2023/06/23 08:22:31;;;;;;;6.30;5.70;;;;;;;23.64;55.56;100215.33;104485;279;113835;-57
2023/06/23 08:25:04;;;;;;;;;;;;;;;23.58;55.93;100213.41;104070;279;93712;-57
2023/06/23 08:27:38;;;;;;;8.80;6.70;;;;;;;23.46;56.65;100204.95;104098;278;97512;-54
2023/06/23 08:30:15;;;;;;;7.00;6.10;;;;;;;23.35;57.32;100196.57;104116;279;120111;-54
2023/06/23 08:32:50;;;;;;;7.10;6.00;;;;;;;23.27;58.16;100191.33;104505;279;106279;-54
2023/06/23 08:35:27;;;;;;;9.40;6.90;;;;;;;23.16;58.94;100179.27;104073;279;114542;-57
2023/06/23 08:38:02;;;;;;;9.50;7.50;;;;;;;23.03;59.73;100165.95;104106;279;93226;-56
2023/06/23 08:40:37;;;;;;;8.70;7.30;;;;;;;22.82;60.89;100152.95;104112;279;96441;-56
2023/06/23 08:43:13;;;;;;;10.60;7.70;;;;;;;22.63;61.72;100138.12;104065;282;119328;-56
2023/06/23 08:45:55;;;;;;;9.70;7.20;;;;;;;22.47;62.33;100119.85;104091;279;106311;-56
2023/06/23 08:48:31;;;;;;;10.40;7.50;;;;;;;22.35;63.49;100102.44;104031;279;114299;-54
2023/06/23 08:51:06;;;;;;;9.20;7.40;;;;;;;22.22;64.22;100069.63;104068;279;93064;-57
2023/06/23 08:53:41;;;;;;;11.50;7.80;;;;;;;22.12;65.08;100052.99;104086;279;97832;-56
2023/06/23 08:56:15;;;;;;;12.30;8.50;;;;;;;22.06;65.56;100038.55;104105;279;119505;-56
2023/06/23 08:58:50;;;;;;;8.70;7.80;;;;;;;21.94;66.13;100019.73;104100;279;104590;-56
2023/06/23 09:01:24;;;;;;;10.60;7.80;;;;;;;21.80;67.28;99992.73;104463;279;114880;-54
2023/06/23 09:03:58;;;;;;;10.30;8.20;;;;;;;21.74;67.41;99982.33;104470;279;96318;-54
2023/06/23 09:06:32;;;;;;;10.20;8.00;;;;;;;21.74;67.91;99990.79;104116;279;97411;-56
2023/06/23 09:09:07;;;;;;;11.10;8.90;;;;;;;21.75;68.24;100016.86;104075;279;119667;-58
2023/06/23 09:11:42;;;;;;;10.40;8.90;;;;;;;21.79;68.08;100029.58;104072;279;104259;-55
2023/06/23 09:14:17;;;;;;;10.70;9.30;;;;;;;21.82;68.69;100027.42;104505;279;114309;-55
2023/06/23 09:16:54;;;;;;;10.90;9.00;;;;;;;21.79;68.81;100016.48;104081;279;95157;-58
2023/06/23 09:19:28;;;;;;;11.20;9.10;;;;;;;21.78;69.24;100012.36;104113;279;97397;-57
2023/06/23 09:22:00;;;;;;;;;;;;;;;21.79;69.37;100031.77;104117;279;118387;-55
2023/06/23 09:24:45;;;;;;;11.20;9.00;;;;;;;21.79;69.89;100056.85;104087;279;105152;-55
2023/06/23 09:27:18;;;;;;;10.20;9.00;;;;;;;21.89;69.78;100068.02;104083;279;114850;-55
2023/06/23 09:30:06;;;;;;;10.40;9.30;;;;;;;21.95;70.02;100094.73;104101;279;92391;-55
2023/06/23 09:32:44;;;;;;;11.00;9.90;;;;;;;21.96;70.65;100115.90;104090;279;98102;-57
2023/06/23 09:35:22;;;;;;;12.80;9.20;;;;;;;21.96;71.40;100125.70;104519;279;118688;-58
2023/06/23 09:37:56;;;;;;;10.70;9.60;;;;;;;21.91;71.88;100132.33;104122;279;106001;-57
2023/06/23 09:40:31;;;;;;;11.60;9.40;;;;;;;21.92;72.17;100140.92;104487;279;114563;-57
2023/06/23 09:43:05;;;;;;;9.70;8.70;;;;;;;21.90;72.49;100156.05;104067;279;96888;-57
2023/06/23 09:45:37;;;;;;;;;;;;;;;21.90;72.93;100164.67;104071;279;98581;-56
2023/06/23 09:48:19;;;;;;;11.80;9.00;;;;;;;21.87;73.09;100161.08;104122;279;119042;-57
2023/06/23 09:51:04;;;;;;;10.80;9.30;;;;;;;21.84;73.28;100164.40;104082;279;105771;-57
2023/06/23 09:53:41;;;;;;;11.10;9.50;;;;;;;21.80;73.51;100176.32;104458;279;114309;-57
2023/06/23 09:56:20;;;;;;;11.60;10.20;;;;;;;21.77;73.97;100194.61;104075;279;96071;-55
2023/06/23 09:58:54;;;;;;;10.70;9.20;;;;;;;21.80;74.15;100209.98;103837;281;97776;-55
2023/06/23 10:01:27;;;;;;;;;;;;;;;21.82;74.38;100225.11;104523;279;120388;-55
2023/06/23 10:04:00;;;;;;;9.90;8.90;;;;;;;21.86;74.88;100229.60;104518;279;105914;-55
2023/06/23 10:06:39;;;;;;;13.60;10.80;;;;;;;21.87;74.80;100245.09;104098;279;115070;-55
2023/06/23 10:09:14;;;;;;;12.20;10.60;;;;;;;21.90;74.88;100251.43;104096;279;97236;-54
2023/06/23 10:11:47;;;;;;;11.40;10.20;;;;;;;21.86;75.13;100261.73;104083;279;98528;-53
2023/06/23 10:14:20;;;;;;;;;;;;;;;21.86;75.26;100269.76;104539;279;120044;-53
2023/06/23 10:16:57;;;;;;;12.80;10.20;;;;;;;21.84;75.40;100272.60;104105;279;104987;-56
2023/06/23 10:19:31;;;;;;;11.70;9.60;;;;;;;21.81;75.73;100283.03;104063;279;114511;-57
2023/06/23 10:22:05;;;;;;;;;;;;;;;21.79;75.83;100283.58;104084;279;96837;-53
2023/06/23 10:24:39;;;;;;;11.40;9.40;;;;;;;21.78;76.00;100286.53;104519;279;97004;-54
2023/06/23 10:27:16;;;;;;;13.10;10.60;;;;;;;21.88;76.25;100282.10;104091;279;120437;-56
2023/06/23 10:29:53;;;;;;;12.00;10.40;;;;;;;21.95;76.38;100282.27;104055;279;104821;-57
2023/06/23 10:32:30;;;;;;;11.70;10.40;;;;;;;22.06;76.67;100285.79;104096;279;113426;-56
2023/06/23 10:35:10;;;;;;;12.20;10.90;;;;;;;22.20;76.93;100285.27;104086;279;96625;-56
2023/06/23 10:37:48;;;;;;;12.30;11.10;;;;;;;22.45;77.04;100282.88;104065;279;97800;-54
2023/06/23 10:40:25;;;;;;;12.90;11.60;;;;;;;22.75;77.20;100280.34;104070;279;120976;-53
2023/06/23 10:43:01;;;;;;;13.20;11.80;;;;;;;23.05;77.12;100274.63;104136;279;104274;-54
2023/06/23 10:45:36;;;;;;;13.10;11.40;;;;;;;23.29;76.99;100271.33;104070;279;114625;-54
2023/06/23 10:48:11;;;;;;;12.60;10.90;;;;;;;23.47;76.94;100272.19;104067;279;97300;-55
2023/06/23 10:50:49;;;;;;;12.10;10.90;;;;;;;23.68;76.28;100271.93;104533;279;98100;-55
2023/06/23 10:53:32;;;;;;;13.50;12.20;;;;;;;23.83;75.58;100275.77;104090;279;121376;-54
2023/06/23 10:56:06;;;;;;;13.10;11.90;;;;;;;23.96;75.08;100272.70;104072;279;105699;-56
2023/06/23 10:58:52;;;;;;;13.10;11.90;;;;;;;24.05;74.99;100275.86;104066;279;114802;-57
2023/06/23 11:01:27;;;;;;;12.20;11.10;;;;;;;24.10;75.03;100275.48;104502;279;97029;-54
2023/06/23 11:04:04;;;;;;;12.10;10.90;;;;;;;24.21;74.31;100278.77;104137;279;97330;-54
2023/06/23 11:06:40;;;;;;;12.60;11.40;;;;;;;24.20;73.70;100270.16;103846;279;121084;-56
2023/06/23 11:09:45;;;;;;;13.60;11.90;;;;;;;24.20;73.30;100268.63;104092;279;106171;-57
2023/06/23 11:12:34;;;;;;;12.60;11.30;;;;;;;24.12;72.83;100264.83;104099;279;114695;-54
2023/06/23 11:15:16;;;;;;;12.90;11.60;;;;;;;24.15;72.78;100265.15;104506;268;94436;-54
2023/06/23 11:17:52;;;;;;;11.80;10.60;;;;;;;24.18;72.43;100266.52;104119;279;98138;-53
2023/06/23 11:20:36;;;;;;;12.20;11.00;;;;;;;24.31;72.32;100263.65;104490;279;121055;-53
2023/06/23 11:23:11;;;;;;;12.10;11.00;;;;;;;24.46;72.04;100260.89;104097;279;105715;-53
2023/06/23 11:25:48;;;;;;;13.40;12.10;;;;;;;24.55;71.85;100260.94;104053;279;114302;-53
2023/06/23 11:28:39;;;;;;;13.00;11.70;;;;;;;24.71;70.95;100264.84;104489;279;96624;-54
2023/06/23 11:31:17;;;;;;;13.30;11.90;;;;;;;25.02;70.74;100262.17;104084;279;97643;-53
2023/06/23 11:34:04;;;;;;;12.00;10.90;;;;;;;25.44;70.32;100259.73;104496;279;120396;-61
2023/06/23 11:36:38;;;;;;;11.10;10.00;;;;;;;25.81;69.87;100259.70;104089;279;104839;-61
2023/06/23 11:39:13;;;;;;;10.80;9.70;;;;;;;26.17;69.22;100257.20;104079;279;114282;-59
2023/06/23 11:41:48;;;;;;;10.90;9.80;;;;;;;26.53;68.09;100249.90;104075;279;94550;-63
2023/06/23 11:44:23;;;;;;;10.40;9.40;;;;;;;26.77;66.74;100253.79;103952;279;98290;-62
2023/06/23 11:46:58;;;;;;;10.00;9.00;;;;;;;26.94;65.80;100258.69;104517;279;121245;-62
2023/06/23 11:49:32;;;;;;;10.80;9.70;;;;;;;27.15;65.34;100260.69;104097;279;105841;-61
2023/06/23 11:52:08;;;;;;;9.80;8.90;;;;;;;27.17;64.28;100260.66;104077;279;113196;-65
2023/06/23 11:54:44;;;;;;;10.70;8.20;;;;;;;27.24;63.82;100258.36;104086;279;94062;-65
2023/06/23 11:57:21;;;;;;;10.00;8.10;;;;;;;27.32;63.01;100255.61;104083;279;95350;-63
2023/06/23 11:59:55;;;;;;;9.90;8.90;;;;;;;27.27;62.37;100255.86;104107;279;119370;-63
2023/06/23 12:02:30;;;;;;;9.80;8.90;;;;;;;27.14;61.85;100255.42;104083;279;104032;-64
2023/06/23 12:05:05;;;;;;;10.00;9.00;;;;;;;27.09;61.47;100251.52;104084;279;114453;-64
2023/06/23 12:07:40;;;;;;;9.90;8.90;;;;;;;27.08;61.07;100245.60;104479;279;92745;-57